sensor_id;sensor_type;location;lat;lon;timestamp;P1;durP1;ratioP1;P2;durP2;ratioP2
39032;SDS011;24794;51.982;5.878;2023-09-19T00:00:09;5.53;;;1.50;;
39032;SDS011;24794;51.982;5.878;2023-09-19T00:01:12;6.10;;;1.90;;
39032;SDS011;24794;51.982;5.878;2023-09-19T00:02:14;4.28;;;1.40;;
39032;SDS011;24794;51.982;5.878;2023-09-19T00:03:14;6.65;;;1.25;;
39032;SDS011;24794;51.982;5.878;2023-09-19T00:04:15;5.13;;;1.30;;
39032;SDS011;24794;51.982;5.878;2023-09-19T00:05:15;3.30;;;1.10;;
39032;SDS011;24794;51.982;5.878;2023-09-19T00:06:16;6.07;;;1.30;;
39032;SDS011;24794;51.982;5.878;2023-09-19T00:07:16;3.15;;;1.17;;
39032;SDS011;24794;51.982;5.878;2023-09-19T00:08:17;6.05;;;1.40;;
39032;SDS011;24794;51.982;5.878;2023-09-19T00:09:22;3.00;;;1.10;;
39032;SDS011;24794;51.982;5.878;2023-09-19T00:10:26;4.68;;;1.25;;
39032;SDS011;24794;51.982;5.878;2023-09-19T00:11:30;6.32;;;1.55;;
39032;SDS011;24794;51.982;5.878;2023-09-19T00:12:31;6.93;;;1.50;;
39032;SDS011;24794;51.982;5.878;2023-09-19T00:13:32;6.63;;;1.40;;
39032;SDS011;24794;51.982;5.878;2023-09-19T00:14:33;7.93;;;1.45;;
39032;SDS011;24794;51.982;5.878;2023-09-19T00:15:39;6.50;;;1.45;;
39032;SDS011;24794;51.982;5.878;2023-09-19T00:16:41;4.40;;;1.38;;
39032;SDS011;24794;51.982;5.878;2023-09-19T00:17:41;4.97;;;1.42;;
39032;SDS011;24794;51.982;5.878;2023-09-19T00:18:43;5.00;;;1.50;;
39032;SDS011;24794;51.982;5.878;2023-09-19T00:19:43;3.97;;;1.33;;
39032;SDS011;24794;51.982;5.878;2023-09-19T00:20:46;7.00;;;1.45;;
39032;SDS011;24794;51.982;5.878;2023-09-19T00:21:47;4.32;;;1.20;;
39032;SDS011;24794;51.982;5.878;2023-09-19T00:22:48;6.93;;;1.60;;
39032;SDS011;24794;51.982;5.878;2023-09-19T00:23:53;8.35;;;1.40;;
39032;SDS011;24794;51.982;5.878;2023-09-19T00:24:53;6.10;;;1.40;;
39032;SDS011;24794;51.982;5.878;2023-09-19T00:25:58;5.18;;;1.52;;
39032;SDS011;24794;51.982;5.878;2023-09-19T00:27:01;8.15;;;1.23;;
39032;SDS011;24794;51.982;5.878;2023-09-19T00:28:02;4.43;;;1.25;;
39032;SDS011;24794;51.982;5.878;2023-09-19T00:29:04;8.13;;;1.63;;
39032;SDS011;24794;51.982;5.878;2023-09-19T00:30:08;3.38;;;1.05;;
39032;SDS011;24794;51.982;5.878;2023-09-19T00:31:19;8.98;;;1.20;;
39032;SDS011;24794;51.982;5.878;2023-09-19T00:32:20;3.72;;;1.25;;
39032;SDS011;24794;51.982;5.878;2023-09-19T00:33:21;8.38;;;1.42;;
39032;SDS011;24794;51.982;5.878;2023-09-19T00:34:22;5.60;;;1.42;;
39032;SDS011;24794;51.982;5.878;2023-09-19T00:35:23;6.03;;;1.60;;
39032;SDS011;24794;51.982;5.878;2023-09-19T00:36:24;6.70;;;1.50;;
39032;SDS011;24794;51.982;5.878;2023-09-19T00:37:24;8.77;;;1.92;;
39032;SDS011;24794;51.982;5.878;2023-09-19T00:38:25;10.73;;;2.13;;
39032;SDS011;24794;51.982;5.878;2023-09-19T00:39:26;9.55;;;2.00;;
39032;SDS011;24794;51.982;5.878;2023-09-19T00:40:31;5.97;;;1.73;;
39032;SDS011;24794;51.982;5.878;2023-09-19T00:41:33;11.25;;;2.15;;
39032;SDS011;24794;51.982;5.878;2023-09-19T00:42:35;13.40;;;2.47;;
39032;SDS011;24794;51.982;5.878;2023-09-19T00:43:38;10.77;;;2.72;;
39032;SDS011;24794;51.982;5.878;2023-09-19T00:44:40;11.40;;;2.35;;
39032;SDS011;24794;51.982;5.878;2023-09-19T00:45:42;8.52;;;2.13;;
39032;SDS011;24794;51.982;5.878;2023-09-19T00:46:44;9.02;;;2.03;;
39032;SDS011;24794;51.982;5.878;2023-09-19T00:47:48;6.28;;;1.90;;
39032;SDS011;24794;51.982;5.878;2023-09-19T00:48:49;12.65;;;2.50;;
39032;SDS011;24794;51.982;5.878;2023-09-19T00:49:50;9.75;;;2.70;;
39032;SDS011;24794;51.982;5.878;2023-09-19T00:50:52;9.68;;;2.33;;
39032;SDS011;24794;51.982;5.878;2023-09-19T00:51:53;7.75;;;1.83;;
39032;SDS011;24794;51.982;5.878;2023-09-19T00:52:55;8.07;;;1.70;;
39032;SDS011;24794;51.982;5.878;2023-09-19T00:53:58;9.88;;;2.10;;
39032;SDS011;24794;51.982;5.878;2023-09-19T00:54:59;9.32;;;1.92;;
39032;SDS011;24794;51.982;5.878;2023-09-19T00:56:00;9.13;;;1.70;;
39032;SDS011;24794;51.982;5.878;2023-09-19T00:57:01;10.15;;;2.10;;
39032;SDS011;24794;51.982;5.878;2023-09-19T00:58:02;12.38;;;2.42;;
39032;SDS011;24794;51.982;5.878;2023-09-19T00:59:03;8.70;;;2.00;;
39032;SDS011;24794;51.982;5.878;2023-09-19T01:00:06;9.85;;;2.30;;
39032;SDS011;24794;51.982;5.878;2023-09-19T01:01:11;12.85;;;3.67;;
39032;SDS011;24794;51.982;5.878;2023-09-19T01:02:14;12.60;;;2.60;;
39032;SDS011;24794;51.982;5.878;2023-09-19T01:03:16;11.73;;;2.47;;
39032;SDS011;24794;51.982;5.878;2023-09-19T01:04:18;10.27;;;1.92;;
39032;SDS011;24794;51.982;5.878;2023-09-19T01:05:18;6.03;;;1.30;;
39032;SDS011;24794;51.982;5.878;2023-09-19T01:06:19;8.95;;;1.65;;
39032;SDS011;24794;51.982;5.878;2023-09-19T01:07:20;7.78;;;1.83;;
39032;SDS011;24794;51.982;5.878;2023-09-19T01:08:22;8.38;;;1.77;;
39032;SDS011;24794;51.982;5.878;2023-09-19T01:09:24;8.43;;;2.10;;
39032;SDS011;24794;51.982;5.878;2023-09-19T01:10:26;8.43;;;2.55;;
39032;SDS011;24794;51.982;5.878;2023-09-19T01:11:35;8.95;;;2.20;;
39032;SDS011;24794;51.982;5.878;2023-09-19T01:16:46;14.25;;;2.70;;
39032;SDS011;24794;51.982;5.878;2023-09-19T01:17:57;12.50;;;2.17;;
39032;SDS011;24794;51.982;5.878;2023-09-19T01:19:26;14.18;;;2.80;;
39032;SDS011;24794;51.982;5.878;2023-09-19T01:20:56;12.18;;;2.50;;
39032;SDS011;24794;51.982;5.878;2023-09-19T01:26:05;9.95;;;2.40;;
39032;SDS011;24794;51.982;5.878;2023-09-19T01:27:53;10.38;;;2.60;;
39032;SDS011;24794;51.982;5.878;2023-09-19T01:28:53;13.30;;;2.45;;
39032;SDS011;24794;51.982;5.878;2023-09-19T01:30:21;13.98;;;2.83;;
39032;SDS011;24794;51.982;5.878;2023-09-19T01:31:28;14.10;;;2.55;;
39032;SDS011;24794;51.982;5.878;2023-09-19T01:32:37;10.77;;;2.20;;
39032;SDS011;24794;51.982;5.878;2023-09-19T01:34:59;11.18;;;2.75;;
39032;SDS011;24794;51.982;5.878;2023-09-19T01:36:05;11.82;;;2.30;;
39032;SDS011;24794;51.982;5.878;2023-09-19T01:37:07;13.07;;;2.22;;
39032;SDS011;24794;51.982;5.878;2023-09-19T01:38:08;9.57;;;2.33;;
39032;SDS011;24794;51.982;5.878;2023-09-19T01:39:12;11.70;;;2.40;;
39032;SDS011;24794;51.982;5.878;2023-09-19T01:40:17;11.55;;;2.25;;
39032;SDS011;24794;51.982;5.878;2023-09-19T01:41:29;12.60;;;2.55;;
39032;SDS011;24794;51.982;5.878;2023-09-19T01:42:43;16.95;;;2.63;;
39032;SDS011;24794;51.982;5.878;2023-09-19T01:45:03;15.32;;;3.03;;
39032;SDS011;24794;51.982;5.878;2023-09-19T01:46:15;14.65;;;2.78;;
39032;SDS011;24794;51.982;5.878;2023-09-19T01:47:28;13.57;;;2.80;;
39032;SDS011;24794;51.982;5.878;2023-09-19T01:48:38;14.60;;;2.28;;
39032;SDS011;24794;51.982;5.878;2023-09-19T01:49:50;13.35;;;2.60;;
39032;SDS011;24794;51.982;5.878;2023-09-19T01:51:01;14.20;;;2.30;;
39032;SDS011;24794;51.982;5.878;2023-09-19T01:52:09;11.52;;;2.70;;
39032;SDS011;24794;51.982;5.878;2023-09-19T01:53:24;14.93;;;3.15;;
39032;SDS011;24794;51.982;5.878;2023-09-19T01:54:31;11.73;;;2.30;;
39032;SDS011;24794;51.982;5.878;2023-09-19T01:55:45;16.92;;;3.10;;
39032;SDS011;24794;51.982;5.878;2023-09-19T01:56:59;13.20;;;2.60;;
39032;SDS011;24794;51.982;5.878;2023-09-19T01:58:24;15.27;;;3.00;;
39032;SDS011;24794;51.982;5.878;2023-09-19T01:59:35;12.30;;;2.70;;
39032;SDS011;24794;51.982;5.878;2023-09-19T02:00:41;13.57;;;2.42;;
39032;SDS011;24794;51.982;5.878;2023-09-19T02:01:44;18.58;;;2.95;;
39032;SDS011;24794;51.982;5.878;2023-09-19T02:02:46;11.95;;;2.30;;
39032;SDS011;24794;51.982;5.878;2023-09-19T02:03:48;15.27;;;2.55;;
39032;SDS011;24794;51.982;5.878;2023-09-19T02:04:49;15.13;;;2.75;;
39032;SDS011;24794;51.982;5.878;2023-09-19T02:05:50;9.30;;;2.20;;
39032;SDS011;24794;51.982;5.878;2023-09-19T02:06:53;12.15;;;2.47;;
39032;SDS011;24794;51.982;5.878;2023-09-19T02:07:54;11.82;;;2.38;;
39032;SDS011;24794;51.982;5.878;2023-09-19T02:08:55;14.65;;;3.00;;
39032;SDS011;24794;51.982;5.878;2023-09-19T02:09:56;19.42;;;2.53;;
39032;SDS011;24794;51.982;5.878;2023-09-19T02:10:56;10.05;;;2.15;;
39032;SDS011;24794;51.982;5.878;2023-09-19T02:11:57;12.77;;;2.70;;
39032;SDS011;24794;51.982;5.878;2023-09-19T02:12:59;18.38;;;2.70;;
39032;SDS011;24794;51.982;5.878;2023-09-19T02:14:00;12.38;;;2.70;;
39032;SDS011;24794;51.982;5.878;2023-09-19T02:15:01;16.23;;;2.83;;
39032;SDS011;24794;51.982;5.878;2023-09-19T02:16:02;15.55;;;2.45;;
39032;SDS011;24794;51.982;5.878;2023-09-19T02:17:04;11.35;;;2.55;;
39032;SDS011;24794;51.982;5.878;2023-09-19T02:18:09;12.93;;;2.33;;
39032;SDS011;24794;51.982;5.878;2023-09-19T02:19:11;11.80;;;2.28;;
39032;SDS011;24794;51.982;5.878;2023-09-19T02:20:12;14.35;;;2.55;;
39032;SDS011;24794;51.982;5.878;2023-09-19T02:21:15;10.65;;;2.05;;
39032;SDS011;24794;51.982;5.878;2023-09-19T02:22:17;10.10;;;1.98;;
39032;SDS011;24794;51.982;5.878;2023-09-19T02:23:17;11.93;;;1.98;;
39032;SDS011;24794;51.982;5.878;2023-09-19T02:24:18;13.10;;;2.50;;
39032;SDS011;24794;51.982;5.878;2023-09-19T02:25:19;14.45;;;2.90;;
39032;SDS011;24794;51.982;5.878;2023-09-19T02:26:20;11.18;;;2.22;;
39032;SDS011;24794;51.982;5.878;2023-09-19T02:27:20;15.63;;;2.50;;
39032;SDS011;24794;51.982;5.878;2023-09-19T02:28:21;12.85;;;2.47;;
39032;SDS011;24794;51.982;5.878;2023-09-19T02:29:22;12.30;;;3.22;;
39032;SDS011;24794;51.982;5.878;2023-09-19T02:30:22;10.45;;;2.42;;
39032;SDS011;24794;51.982;5.878;2023-09-19T02:31:25;14.73;;;2.85;;
39032;SDS011;24794;51.982;5.878;2023-09-19T02:32:29;15.10;;;2.50;;
39032;SDS011;24794;51.982;5.878;2023-09-19T02:33:31;11.55;;;2.42;;
39032;SDS011;24794;51.982;5.878;2023-09-19T02:34:35;15.30;;;2.80;;
39032;SDS011;24794;51.982;5.878;2023-09-19T02:35:39;11.30;;;2.53;;
39032;SDS011;24794;51.982;5.878;2023-09-19T02:36:39;12.85;;;2.35;;
39032;SDS011;24794;51.982;5.878;2023-09-19T02:37:40;12.55;;;2.53;;
39032;SDS011;24794;51.982;5.878;2023-09-19T02:38:40;14.65;;;2.10;;
39032;SDS011;24794;51.982;5.878;2023-09-19T02:39:41;16.77;;;3.03;;
39032;SDS011;24794;51.982;5.878;2023-09-19T02:40:41;11.32;;;2.17;;
39032;SDS011;24794;51.982;5.878;2023-09-19T02:41:43;13.55;;;2.33;;
39032;SDS011;24794;51.982;5.878;2023-09-19T02:42:52;12.90;;;2.40;;
39032;SDS011;24794;51.982;5.878;2023-09-19T02:43:54;13.73;;;2.55;;
39032;SDS011;24794;51.982;5.878;2023-09-19T02:44:54;12.10;;;2.30;;
39032;SDS011;24794;51.982;5.878;2023-09-19T02:45:56;13.77;;;2.47;;
39032;SDS011;24794;51.982;5.878;2023-09-19T02:46:57;14.02;;;2.40;;
39032;SDS011;24794;51.982;5.878;2023-09-19T02:47:57;12.50;;;2.25;;
39032;SDS011;24794;51.982;5.878;2023-09-19T02:48:58;13.18;;;2.28;;
39032;SDS011;24794;51.982;5.878;2023-09-19T02:49:58;15.93;;;2.08;;
39032;SDS011;24794;51.982;5.878;2023-09-19T02:50:59;14.13;;;2.28;;
39032;SDS011;24794;51.982;5.878;2023-09-19T02:52:00;12.60;;;2.33;;
39032;SDS011;24794;51.982;5.878;2023-09-19T02:53:00;14.82;;;2.20;;
39032;SDS011;24794;51.982;5.878;2023-09-19T02:54:01;15.60;;;2.63;;
39032;SDS011;24794;51.982;5.878;2023-09-19T02:55:03;15.70;;;2.55;;
39032;SDS011;24794;51.982;5.878;2023-09-19T02:56:05;9.75;;;2.33;;
39032;SDS011;24794;51.982;5.878;2023-09-19T02:57:07;12.77;;;2.40;;
39032;SDS011;24794;51.982;5.878;2023-09-19T02:58:07;9.38;;;2.78;;
39032;SDS011;24794;51.982;5.878;2023-09-19T02:59:08;13.70;;;2.45;;
39032;SDS011;24794;51.982;5.878;2023-09-19T03:00:10;11.02;;;2.13;;
39032;SDS011;24794;51.982;5.878;2023-09-19T03:01:12;12.02;;;2.55;;
39032;SDS011;24794;51.982;5.878;2023-09-19T03:02:12;8.65;;;2.00;;
39032;SDS011;24794;51.982;5.878;2023-09-19T03:03:13;13.45;;;2.35;;
39032;SDS011;24794;51.982;5.878;2023-09-19T03:04:16;12.13;;;2.28;;
39032;SDS011;24794;51.982;5.878;2023-09-19T03:05:19;11.68;;;2.33;;
39032;SDS011;24794;51.982;5.878;2023-09-19T03:06:21;13.10;;;2.55;;
39032;SDS011;24794;51.982;5.878;2023-09-19T03:07:23;11.80;;;2.60;;
39032;SDS011;24794;51.982;5.878;2023-09-19T03:08:25;14.88;;;2.42;;
39032;SDS011;24794;51.982;5.878;2023-09-19T03:09:25;14.18;;;2.58;;
39032;SDS011;24794;51.982;5.878;2023-09-19T03:10:26;15.40;;;2.47;;
39032;SDS011;24794;51.982;5.878;2023-09-19T03:11:27;12.13;;;2.20;;
39032;SDS011;24794;51.982;5.878;2023-09-19T03:12:28;15.07;;;2.80;;
39032;SDS011;24794;51.982;5.878;2023-09-19T03:13:29;14.05;;;2.38;;
39032;SDS011;24794;51.982;5.878;2023-09-19T03:14:31;10.82;;;2.40;;
39032;SDS011;24794;51.982;5.878;2023-09-19T03:15:35;10.05;;;2.40;;
39032;SDS011;24794;51.982;5.878;2023-09-19T03:16:38;10.20;;;2.40;;
39032;SDS011;24794;51.982;5.878;2023-09-19T03:17:42;12.80;;;2.30;;
39032;SDS011;24794;51.982;5.878;2023-09-19T03:18:43;18.02;;;3.15;;
39032;SDS011;24794;51.982;5.878;2023-09-19T03:19:45;14.25;;;2.30;;
39032;SDS011;24794;51.982;5.878;2023-09-19T03:20:53;12.32;;;2.35;;
39032;SDS011;24794;51.982;5.878;2023-09-19T03:21:59;14.05;;;2.20;;
39032;SDS011;24794;51.982;5.878;2023-09-19T03:22:59;14.25;;;2.50;;
39032;SDS011;24794;51.982;5.878;2023-09-19T03:24:00;8.55;;;2.28;;
39032;SDS011;24794;51.982;5.878;2023-09-19T03:25:00;11.75;;;2.20;;
39032;SDS011;24794;51.982;5.878;2023-09-19T03:26:01;13.30;;;2.20;;
39032;SDS011;24794;51.982;5.878;2023-09-19T03:27:01;11.73;;;2.25;;
39032;SDS011;24794;51.982;5.878;2023-09-19T03:28:03;11.45;;;2.40;;
39032;SDS011;24794;51.982;5.878;2023-09-19T03:29:07;11.63;;;2.20;;
39032;SDS011;24794;51.982;5.878;2023-09-19T03:30:10;11.07;;;2.40;;
39032;SDS011;24794;51.982;5.878;2023-09-19T03:31:13;12.05;;;2.17;;
39032;SDS011;24794;51.982;5.878;2023-09-19T03:32:13;13.80;;;2.63;;
39032;SDS011;24794;51.982;5.878;2023-09-19T03:33:14;16.60;;;2.47;;
39032;SDS011;24794;51.982;5.878;2023-09-19T03:34:14;12.05;;;1.90;;
39032;SDS011;24794;51.982;5.878;2023-09-19T03:35:15;10.13;;;2.60;;
39032;SDS011;24794;51.982;5.878;2023-09-19T03:36:16;14.10;;;2.85;;
39032;SDS011;24794;51.982;5.878;2023-09-19T03:37:17;14.02;;;2.63;;
39032;SDS011;24794;51.982;5.878;2023-09-19T03:38:18;15.15;;;2.30;;
39032;SDS011;24794;51.982;5.878;2023-09-19T03:39:18;12.18;;;2.42;;
39032;SDS011;24794;51.982;5.878;2023-09-19T03:40:19;11.15;;;1.90;;
39032;SDS011;24794;51.982;5.878;2023-09-19T03:41:21;12.95;;;2.90;;
39032;SDS011;24794;51.982;5.878;2023-09-19T03:42:22;12.75;;;2.15;;
39032;SDS011;24794;51.982;5.878;2023-09-19T03:43:25;11.88;;;1.90;;
39032;SDS011;24794;51.982;5.878;2023-09-19T03:44:26;14.30;;;2.25;;
39032;SDS011;24794;51.982;5.878;2023-09-19T03:45:26;11.30;;;2.50;;
39032;SDS011;24794;51.982;5.878;2023-09-19T03:46:28;12.57;;;2.60;;
39032;SDS011;24794;51.982;5.878;2023-09-19T03:47:28;13.38;;;2.40;;
39032;SDS011;24794;51.982;5.878;2023-09-19T03:48:29;11.40;;;2.22;;
39032;SDS011;24794;51.982;5.878;2023-09-19T03:49:30;10.85;;;2.28;;
39032;SDS011;24794;51.982;5.878;2023-09-19T03:50:30;7.90;;;1.90;;
39032;SDS011;24794;51.982;5.878;2023-09-19T03:51:33;11.40;;;2.10;;
39032;SDS011;24794;51.982;5.878;2023-09-19T03:52:34;7.45;;;2.13;;
39032;SDS011;24794;51.982;5.878;2023-09-19T03:53:34;8.85;;;2.05;;
39032;SDS011;24794;51.982;5.878;2023-09-19T03:54:35;10.25;;;2.20;;
39032;SDS011;24794;51.982;5.878;2023-09-19T03:55:35;12.27;;;2.05;;
39032;SDS011;24794;51.982;5.878;2023-09-19T03:56:36;13.93;;;2.47;;
39032;SDS011;24794;51.982;5.878;2023-09-19T03:57:37;16.98;;;2.65;;
39032;SDS011;24794;51.982;5.878;2023-09-19T03:58:37;9.52;;;2.10;;
39032;SDS011;24794;51.982;5.878;2023-09-19T03:59:40;7.97;;;2.15;;
39032;SDS011;24794;51.982;5.878;2023-09-19T04:00:42;7.60;;;1.80;;
39032;SDS011;24794;51.982;5.878;2023-09-19T04:01:43;11.15;;;2.22;;
39032;SDS011;24794;51.982;5.878;2023-09-19T04:02:43;8.10;;;1.77;;
39032;SDS011;24794;51.982;5.878;2023-09-19T04:03:46;10.23;;;2.28;;
39032;SDS011;24794;51.982;5.878;2023-09-19T04:04:47;14.45;;;2.40;;
39032;SDS011;24794;51.982;5.878;2023-09-19T04:05:48;13.70;;;2.10;;
39032;SDS011;24794;51.982;5.878;2023-09-19T04:06:49;16.45;;;2.35;;
39032;SDS011;24794;51.982;5.878;2023-09-19T04:07:49;7.43;;;1.70;;
39032;SDS011;24794;51.982;5.878;2023-09-19T04:08:50;16.02;;;2.38;;
39032;SDS011;24794;51.982;5.878;2023-09-19T04:09:50;11.27;;;2.40;;
39032;SDS011;24794;51.982;5.878;2023-09-19T04:10:53;11.52;;;2.55;;
39032;SDS011;24794;51.982;5.878;2023-09-19T04:11:53;9.95;;;2.20;;
39032;SDS011;24794;51.982;5.878;2023-09-19T04:12:54;11.10;;;2.50;;
39032;SDS011;24794;51.982;5.878;2023-09-19T04:13:56;9.68;;;2.42;;
39032;SDS011;24794;51.982;5.878;2023-09-19T04:14:57;11.02;;;2.10;;
39032;SDS011;24794;51.982;5.878;2023-09-19T04:15:57;8.60;;;2.17;;
39032;SDS011;24794;51.982;5.878;2023-09-19T04:16:58;11.65;;;2.20;;
39032;SDS011;24794;51.982;5.878;2023-09-19T04:17:58;13.93;;;2.33;;
39032;SDS011;24794;51.982;5.878;2023-09-19T04:18:59;10.50;;;1.88;;
39032;SDS011;24794;51.982;5.878;2023-09-19T04:20:00;10.07;;;2.00;;
39032;SDS011;24794;51.982;5.878;2023-09-19T04:21:00;8.85;;;1.83;;
39032;SDS011;24794;51.982;5.878;2023-09-19T04:22:03;9.52;;;2.10;;
39032;SDS011;24794;51.982;5.878;2023-09-19T04:23:04;10.77;;;1.80;;
39032;SDS011;24794;51.982;5.878;2023-09-19T04:24:05;8.90;;;1.85;;
39032;SDS011;24794;51.982;5.878;2023-09-19T04:25:06;9.23;;;2.40;;
39032;SDS011;24794;51.982;5.878;2023-09-19T04:26:07;9.27;;;1.75;;
39032;SDS011;24794;51.982;5.878;2023-09-19T04:27:08;8.88;;;1.98;;
39032;SDS011;24794;51.982;5.878;2023-09-19T04:28:09;13.98;;;2.17;;
39032;SDS011;24794;51.982;5.878;2023-09-19T04:29:13;11.65;;;2.05;;
39032;SDS011;24794;51.982;5.878;2023-09-19T04:30:14;12.85;;;2.28;;
39032;SDS011;24794;51.982;5.878;2023-09-19T04:31:15;12.10;;;2.40;;
39032;SDS011;24794;51.982;5.878;2023-09-19T04:32:16;13.45;;;2.30;;
39032;SDS011;24794;51.982;5.878;2023-09-19T04:33:17;10.73;;;2.15;;
39032;SDS011;24794;51.982;5.878;2023-09-19T04:34:18;11.60;;;3.45;;
39032;SDS011;24794;51.982;5.878;2023-09-19T04:35:18;12.68;;;2.08;;
39032;SDS011;24794;51.982;5.878;2023-09-19T04:36:19;10.02;;;2.10;;
39032;SDS011;24794;51.982;5.878;2023-09-19T04:37:21;9.55;;;1.95;;
39032;SDS011;24794;51.982;5.878;2023-09-19T04:38:22;7.65;;;1.98;;
39032;SDS011;24794;51.982;5.878;2023-09-19T04:39:23;14.43;;;2.53;;
39032;SDS011;24794;51.982;5.878;2023-09-19T04:40:25;10.13;;;2.25;;
39032;SDS011;24794;51.982;5.878;2023-09-19T04:41:26;11.52;;;2.10;;
39032;SDS011;24794;51.982;5.878;2023-09-19T04:42:27;11.95;;;2.17;;
39032;SDS011;24794;51.982;5.878;2023-09-19T04:43:27;14.15;;;2.35;;
39032;SDS011;24794;51.982;5.878;2023-09-19T04:44:30;13.68;;;2.42;;
39032;SDS011;24794;51.982;5.878;2023-09-19T04:45:30;9.45;;;2.00;;
39032;SDS011;24794;51.982;5.878;2023-09-19T04:46:31;14.60;;;2.28;;
39032;SDS011;24794;51.982;5.878;2023-09-19T04:47:31;9.70;;;2.05;;
39032;SDS011;24794;51.982;5.878;2023-09-19T04:48:32;13.77;;;2.63;;
39032;SDS011;24794;51.982;5.878;2023-09-19T04:49:34;11.93;;;2.38;;
39032;SDS011;24794;51.982;5.878;2023-09-19T04:50:35;14.30;;;2.58;;
39032;SDS011;24794;51.982;5.878;2023-09-19T04:51:37;9.23;;;2.17;;
39032;SDS011;24794;51.982;5.878;2023-09-19T04:52:38;13.40;;;1.80;;
39032;SDS011;24794;51.982;5.878;2023-09-19T04:53:42;11.48;;;2.13;;
39032;SDS011;24794;51.982;5.878;2023-09-19T04:54:43;12.63;;;2.40;;
39032;SDS011;24794;51.982;5.878;2023-09-19T04:55:45;10.82;;;2.08;;
39032;SDS011;24794;51.982;5.878;2023-09-19T04:56:46;10.35;;;2.03;;
39032;SDS011;24794;51.982;5.878;2023-09-19T04:57:47;14.63;;;2.58;;
39032;SDS011;24794;51.982;5.878;2023-09-19T04:58:49;8.18;;;1.80;;
39032;SDS011;24794;51.982;5.878;2023-09-19T04:59:49;12.98;;;2.13;;
39032;SDS011;24794;51.982;5.878;2023-09-19T05:00:50;16.55;;;2.17;;
39032;SDS011;24794;51.982;5.878;2023-09-19T05:01:51;15.90;;;2.35;;
39032;SDS011;24794;51.982;5.878;2023-09-19T05:02:52;11.88;;;2.33;;
39032;SDS011;24794;51.982;5.878;2023-09-19T05:03:56;10.93;;;2.25;;
39032;SDS011;24794;51.982;5.878;2023-09-19T05:04:57;13.02;;;2.22;;
39032;SDS011;24794;51.982;5.878;2023-09-19T05:05:59;12.63;;;2.40;;
39032;SDS011;24794;51.982;5.878;2023-09-19T05:06:59;10.23;;;1.83;;
39032;SDS011;24794;51.982;5.878;2023-09-19T05:08:03;9.20;;;2.35;;
39032;SDS011;24794;51.982;5.878;2023-09-19T05:09:05;12.30;;;2.67;;
39032;SDS011;24794;51.982;5.878;2023-09-19T05:10:06;10.02;;;2.15;;
39032;SDS011;24794;51.982;5.878;2023-09-19T05:11:07;14.93;;;2.08;;
39032;SDS011;24794;51.982;5.878;2023-09-19T05:12:08;9.57;;;2.30;;
39032;SDS011;24794;51.982;5.878;2023-09-19T05:13:10;10.82;;;1.90;;
39032;SDS011;24794;51.982;5.878;2023-09-19T05:14:12;9.13;;;1.77;;
39032;SDS011;24794;51.982;5.878;2023-09-19T05:15:12;8.73;;;2.28;;
39032;SDS011;24794;51.982;5.878;2023-09-19T05:16:17;11.55;;;2.00;;
39032;SDS011;24794;51.982;5.878;2023-09-19T05:17:18;11.73;;;2.28;;
39032;SDS011;24794;51.982;5.878;2023-09-19T05:18:19;12.10;;;2.53;;
39032;SDS011;24794;51.982;5.878;2023-09-19T05:19:20;13.00;;;1.85;;
39032;SDS011;24794;51.982;5.878;2023-09-19T05:20:20;12.18;;;2.08;;
39032;SDS011;24794;51.982;5.878;2023-09-19T05:21:30;14.40;;;2.30;;
39032;SDS011;24794;51.982;5.878;2023-09-19T05:22:31;10.63;;;2.30;;
39032;SDS011;24794;51.982;5.878;2023-09-19T05:23:32;12.45;;;2.45;;
39032;SDS011;24794;51.982;5.878;2023-09-19T05:24:33;9.50;;;2.13;;
39032;SDS011;24794;51.982;5.878;2023-09-19T05:25:34;11.00;;;2.08;;
39032;SDS011;24794;51.982;5.878;2023-09-19T05:26:37;12.15;;;2.10;;
39032;SDS011;24794;51.982;5.878;2023-09-19T05:27:37;12.55;;;2.13;;
39032;SDS011;24794;51.982;5.878;2023-09-19T05:28:38;8.90;;;2.03;;
39032;SDS011;24794;51.982;5.878;2023-09-19T05:29:38;11.20;;;2.30;;
39032;SDS011;24794;51.982;5.878;2023-09-19T05:30:40;9.85;;;1.92;;
39032;SDS011;24794;51.982;5.878;2023-09-19T05:31:43;13.00;;;2.40;;
39032;SDS011;24794;51.982;5.878;2023-09-19T05:32:43;13.20;;;1.90;;
39032;SDS011;24794;51.982;5.878;2023-09-19T05:33:44;10.15;;;1.80;;
39032;SDS011;24794;51.982;5.878;2023-09-19T05:34:44;11.02;;;2.00;;
39032;SDS011;24794;51.982;5.878;2023-09-19T05:35:45;12.18;;;2.25;;
39032;SDS011;24794;51.982;5.878;2023-09-19T05:36:48;8.80;;;2.03;;
39032;SDS011;24794;51.982;5.878;2023-09-19T05:37:52;9.77;;;1.88;;
39032;SDS011;24794;51.982;5.878;2023-09-19T05:38:53;10.15;;;2.10;;
39032;SDS011;24794;51.982;5.878;2023-09-19T05:39:53;9.65;;;1.80;;
39032;SDS011;24794;51.982;5.878;2023-09-19T05:40:54;8.77;;;2.50;;
39032;SDS011;24794;51.982;5.878;2023-09-19T05:41:54;7.47;;;2.00;;
39032;SDS011;24794;51.982;5.878;2023-09-19T05:42:57;14.05;;;2.58;;
39032;SDS011;24794;51.982;5.878;2023-09-19T05:43:57;14.25;;;1.95;;
39032;SDS011;24794;51.982;5.878;2023-09-19T05:44:59;16.25;;;2.17;;
39032;SDS011;24794;51.982;5.878;2023-09-19T05:46:00;10.60;;;2.13;;
39032;SDS011;24794;51.982;5.878;2023-09-19T05:47:00;11.95;;;2.58;;
39032;SDS011;24794;51.982;5.878;2023-09-19T05:48:11;12.57;;;2.15;;
39032;SDS011;24794;51.982;5.878;2023-09-19T05:49:13;15.45;;;2.38;;
39032;SDS011;24794;51.982;5.878;2023-09-19T05:50:14;11.02;;;2.22;;
39032;SDS011;24794;51.982;5.878;2023-09-19T05:51:16;14.80;;;2.13;;
39032;SDS011;24794;51.982;5.878;2023-09-19T05:52:18;10.52;;;2.20;;
39032;SDS011;24794;51.982;5.878;2023-09-19T05:53:19;10.48;;;2.13;;
39032;SDS011;24794;51.982;5.878;2023-09-19T05:54:20;14.43;;;2.75;;
39032;SDS011;24794;51.982;5.878;2023-09-19T05:55:20;12.35;;;2.25;;
39032;SDS011;24794;51.982;5.878;2023-09-19T05:56:24;10.20;;;2.28;;
39032;SDS011;24794;51.982;5.878;2023-09-19T05:57:24;10.57;;;2.60;;
39032;SDS011;24794;51.982;5.878;2023-09-19T05:58:25;9.55;;;2.10;;
39032;SDS011;24794;51.982;5.878;2023-09-19T05:59:25;11.02;;;2.22;;
39032;SDS011;24794;51.982;5.878;2023-09-19T06:00:26;15.00;;;2.42;;
39032;SDS011;24794;51.982;5.878;2023-09-19T06:01:31;8.73;;;2.17;;
39032;SDS011;24794;51.982;5.878;2023-09-19T06:02:35;6.80;;;1.52;;
39032;SDS011;24794;51.982;5.878;2023-09-19T06:03:36;9.85;;;2.30;;
39032;SDS011;24794;51.982;5.878;2023-09-19T06:04:36;11.20;;;1.80;;
39032;SDS011;24794;51.982;5.878;2023-09-19T06:05:40;7.80;;;1.80;;
39032;SDS011;24794;51.982;5.878;2023-09-19T06:06:41;9.63;;;2.25;;
39032;SDS011;24794;51.982;5.878;2023-09-19T06:07:42;12.68;;;2.30;;
39032;SDS011;24794;51.982;5.878;2023-09-19T06:08:43;10.93;;;2.00;;
39032;SDS011;24794;51.982;5.878;2023-09-19T06:09:45;10.40;;;2.00;;
39032;SDS011;24794;51.982;5.878;2023-09-19T06:10:46;15.25;;;2.25;;
39032;SDS011;24794;51.982;5.878;2023-09-19T06:11:46;11.55;;;2.10;;
39032;SDS011;24794;51.982;5.878;2023-09-19T06:12:47;11.13;;;2.08;;
39032;SDS011;24794;51.982;5.878;2023-09-19T06:13:48;13.57;;;2.35;;
39032;SDS011;24794;51.982;5.878;2023-09-19T06:14:48;11.68;;;2.25;;
39032;SDS011;24794;51.982;5.878;2023-09-19T06:15:49;12.35;;;2.17;;
39032;SDS011;24794;51.982;5.878;2023-09-19T06:16:50;11.10;;;2.45;;
39032;SDS011;24794;51.982;5.878;2023-09-19T06:17:54;13.52;;;3.90;;
39032;SDS011;24794;51.982;5.878;2023-09-19T06:18:56;12.55;;;3.60;;
39032;SDS011;24794;51.982;5.878;2023-09-19T06:19:57;15.27;;;2.83;;
39032;SDS011;24794;51.982;5.878;2023-09-19T06:20:57;12.23;;;2.17;;
39032;SDS011;24794;51.982;5.878;2023-09-19T06:21:58;9.68;;;2.05;;
39032;SDS011;24794;51.982;5.878;2023-09-19T06:22:59;11.63;;;2.47;;